Time;durP1;ratioP1;P1;durP2;ratioP2;P2;SDS_P1;SDS_P2;PMS_P1;PMS_P2;Temp;Humidity;BMP_temperature;BMP_pressure;BME280_temperature;BME280_humidity;BME280_pressure;Samples;Min_cycle;Max_cycle;Signal;HPM_P1;HPM_P2
2022/03/16 00:00:13;;;;;;;59.23;26.17;;;9.50;97.00;;;;;;5016389;28;20495;-47
2022/03/16 00:02:40;;;;;;;55.07;25.10;;;9.50;96.90;;;;;;5022356;28;20478;-47
2022/03/16 00:05:08;;;;;;;45.63;23.13;;;9.50;96.90;;;;;;5022875;28;20490;-47
2022/03/16 00:07:34;;;;;;;48.37;25.00;;;9.50;96.80;;;;;;5024127;28;20848;-47
2022/03/16 00:10:02;;;;;;;49.80;24.07;;;9.60;96.90;;;;;;5014856;28;20751;-47
2022/03/16 00:12:29;;;;;;;47.07;23.87;;;9.50;96.80;;;;;;5023027;28;21046;-48
2022/03/16 00:14:56;;;;;;;58.30;28.27;;;9.50;96.90;;;;;;5019924;28;20481;-47
2022/03/16 00:17:22;;;;;;;55.03;26.40;;;9.50;96.90;;;;;;5016826;28;20682;-47
2022/03/16 00:19:49;;;;;;;48.33;24.70;;;9.60;97.00;;;;;;5018048;28;20832;-47
2022/03/16 00:22:16;;;;;;;49.50;26.90;;;9.50;96.90;;;;;;5021911;28;20519;-47
2022/03/16 00:24:43;;;;;;;57.67;26.33;;;9.40;96.90;;;;;;5021324;28;21118;-47
2022/03/16 00:27:11;;;;;;;47.67;24.20;;;9.40;97.00;;;;;;5013713;28;20556;-47
2022/03/16 00:29:38;;;;;;;52.53;25.13;;;9.40;97.00;;;;;;5017180;28;20482;-48
2022/03/16 00:32:06;;;;;;;55.70;26.33;;;9.40;97.00;;;;;;5018429;28;20487;-48
2022/03/16 00:34:33;;;;;;;51.73;26.77;;;9.40;97.00;;;;;;5021272;28;20552;-47
2022/03/16 00:36:59;;;;;;;55.00;28.50;;;9.50;97.00;;;;;;5018885;28;20475;-47
2022/03/16 00:39:26;;;;;;;50.87;27.00;;;;;;;;;;5013150;28;20489;-47
2022/03/16 00:41:53;;;;;;;54.37;28.33;;;9.50;97.00;;;;;;5019502;28;20494;-47
2022/03/16 00:44:21;;;;;;;52.57;27.73;;;9.50;96.90;;;;;;5021386;28;20502;-48
2022/03/16 00:46:48;;;;;;;56.40;27.90;;;9.50;96.80;;;;;;5021331;28;20487;-47
2022/03/16 00:49:15;;;;;;;54.20;26.60;;;;;;;;;;5014041;28;20484;-47
2022/03/16 00:51:42;;;;;;;67.40;27.30;;;9.50;96.70;;;;;;5019389;28;20489;-47
2022/03/16 00:54:08;;;;;;;48.00;24.33;;;9.50;96.80;;;;;;5019145;28;20491;-47
2022/03/16 00:56:35;;;;;;;47.80;25.90;;;9.50;96.80;;;;;;5021438;28;20794;-47
2022/03/16 00:59:02;;;;;;;50.50;25.57;;;9.50;96.80;;;;;;5003521;28;20506;-47
2022/03/16 01:01:30;;;;;;;62.17;29.70;;;;;;;;;;5012960;28;20486;-49
2022/03/16 01:03:57;;;;;;;66.13;30.87;;;9.50;96.80;;;;;;5013576;28;20470;-47
2022/03/16 01:06:24;;;;;;;64.43;33.23;;;9.50;96.80;;;;;;5020023;28;20492;-48
2022/03/16 01:08:51;;;;;;;61.73;30.40;;;9.50;96.80;;;;;;5015221;28;20489;-47
2022/03/16 01:11:17;;;;;;;56.67;28.90;;;9.50;96.90;;;;;;5016362;28;20572;-48
2022/03/16 01:13:45;;;;;;;62.90;30.67;;;9.50;96.80;;;;;;5024774;28;20481;-48
2022/03/16 01:16:12;;;;;;;58.93;29.60;;;9.60;96.90;;;;;;5024007;28;20491;-48
2022/03/16 01:18:40;;;;;;;65.00;31.83;;;9.50;96.80;;;;;;5020338;28;20489;-48
2022/03/16 01:21:07;;;;;;;53.40;28.80;;;9.60;96.90;;;;;;5020484;28;20481;-48
2022/03/16 01:23:35;;;;;;;60.77;33.47;;;9.60;96.80;;;;;;5022939;28;20489;-48
2022/03/16 01:26:02;;;;;;;60.83;29.80;;;9.60;96.70;;;;;;5020986;28;20496;-48
2022/03/16 01:28:29;;;;;;;59.67;29.27;;;9.60;96.60;;;;;;5018956;28;20497;-48
2022/03/16 01:30:57;;;;;;;61.83;29.17;;;9.60;96.70;;;;;;5024062;28;20563;-48
2022/03/16 01:33:24;;;;;;;60.97;31.00;;;9.60;96.70;;;;;;5022286;28;20614;-48
2022/03/16 01:35:52;;;;;;;60.80;31.20;;;9.60;96.70;;;;;;5015433;28;20477;-47
2022/03/16 01:38:19;;;;;;;61.70;31.57;;;9.60;96.80;;;;;;5034529;28;20490;-47
2022/03/16 01:40:46;;;;;;;72.10;33.90;;;9.60;96.70;;;;;;5014842;28;20483;-46
2022/03/16 01:43:13;;;;;;;66.63;32.40;;;9.60;96.80;;;;;;5023426;28;20500;-48
2022/03/16 01:45:46;;;;;;;61.70;31.10;;;9.60;96.80;;;;;;5023256;28;20490;-47
2022/03/16 01:48:13;;;;;;;63.27;29.03;;;9.60;96.70;;;;;;5009835;28;20537;-48
2022/03/16 01:50:39;;;;;;;61.63;30.70;;;9.60;96.80;;;;;;5019145;28;20641;-47
2022/03/16 01:53:08;;;;;;;76.87;36.90;;;9.70;96.80;;;;;;5017346;28;20997;-48
2022/03/16 01:55:34;;;;;;;64.53;33.10;;;9.70;96.80;;;;;;5019381;28;20546;-47
2022/03/16 01:58:02;;;;;;;71.23;32.37;;;;;;;;;;5018414;28;20482;-48
2022/03/16 02:00:28;;;;;;;60.13;30.03;;;9.70;96.90;;;;;;5014157;28;20498;-48
2022/03/16 02:02:55;;;;;;;63.63;29.40;;;9.70;96.80;;;;;;5018427;28;20474;-46
2022/03/16 02:05:22;;;;;;;61.30;29.43;;;9.80;96.70;;;;;;5022632;28;20490;-47
2022/03/16 02:07:49;;;;;;;60.53;28.30;;;9.80;96.70;;;;;;5021828;28;20972;-47
2022/03/16 02:10:18;;;;;;;62.80;26.10;;;9.80;96.80;;;;;;5015132;28;20502;-47
2022/03/16 02:12:47;;;;;;;63.27;29.57;;;9.90;96.70;;;;;;5011831;28;20592;-48
2022/03/16 02:15:14;;;;;;;55.03;27.83;;;9.80;96.80;;;;;;5031829;28;20479;-47
2022/03/16 02:17:41;;;;;;;58.20;28.73;;;9.80;96.90;;;;;;5022925;28;20475;-47
2022/03/16 02:20:09;;;;;;;52.83;26.00;;;9.80;96.80;;;;;;5019141;28;20478;-47
2022/03/16 02:22:38;;;;;;;58.00;27.00;;;9.80;96.80;;;;;;5021374;28;20470;-47
2022/03/16 02:25:09;;;;;;;63.90;29.50;;;9.90;96.70;;;;;;5020165;28;20508;-47
2022/03/16 02:27:39;;;;;;;62.93;30.93;;;9.90;96.80;;;;;;5021381;28;20490;-47
2022/03/16 02:30:07;;;;;;;64.07;29.63;;;9.90;96.70;;;;;;5010906;28;20790;-47
2022/03/16 02:32:33;;;;;;;66.73;30.00;;;9.90;96.70;;;;;;5033935;28;20485;-47
2022/03/16 02:35:00;;;;;;;62.23;27.97;;;9.90;96.70;;;;;;5018853;28;20491;-47
2022/03/16 02:37:27;;;;;;;58.43;28.93;;;9.90;96.80;;;;;;5021200;28;20485;-47
2022/03/16 02:39:54;;;;;;;62.33;28.63;;;;;;;;;;5017403;28;20478;-47
2022/03/16 02:42:23;;;;;;;58.50;26.97;;;10.00;96.20;;;;;;5019137;28;20498;-47
2022/03/16 02:44:50;;;;;;;51.87;23.60;;;10.00;96.20;;;;;;5023124;28;20486;-47
2022/03/16 02:47:16;;;;;;;49.20;23.77;;;10.00;96.20;;;;;;5026050;28;20487;-47
2022/03/16 02:49:43;;;;;;;56.70;27.50;;;10.00;96.10;;;;;;5019857;28;20486;-47
2022/03/16 02:52:11;;;;;;;74.50;29.97;;;10.00;96.10;;;;;;5021610;28;20490;-47
2022/03/16 02:54:38;;;;;;;62.40;29.00;;;9.90;96.60;;;;;;5022099;28;20939;-48
2022/03/16 02:57:05;;;;;;;59.23;27.90;;;10.00;96.20;;;;;;5021751;28;20503;-47
2022/03/16 02:59:33;;;;;;;65.13;29.57;;;9.90;96.80;;;;;;5018117;28;21005;-47
2022/03/16 03:02:00;;;;;;;62.00;29.33;;;9.90;96.80;;;;;;5022351;28;20486;-47
2022/03/16 03:04:27;;;;;;;56.57;26.97;;;9.90;96.80;;;;;;5020298;28;20591;-47
2022/03/16 03:06:53;;;;;;;55.07;27.10;;;9.90;96.80;;;;;;5024996;28;20481;-47
2022/03/16 03:09:20;;;;;;;59.30;27.43;;;9.80;96.80;;;;;;4992261;28;20488;-48
2022/03/16 03:11:47;;;;;;;60.60;27.40;;;;;;;;;;5018996;28;20601;-48
2022/03/16 03:14:14;;;;;;;55.20;26.40;;;9.80;96.80;;;;;;5006383;28;20491;-48
2022/03/16 03:16:42;;;;;;;55.47;27.80;;;9.80;96.90;;;;;;5014428;28;20551;-48
2022/03/16 03:19:09;;;;;;;58.30;27.93;;;9.80;97.00;;;;;;5017386;28;20490;-47
2022/03/16 03:21:35;;;;;;;62.73;26.33;;;9.80;97.00;;;;;;5014015;28;20547;-48
2022/03/16 03:24:02;;;;;;;65.70;27.13;;;9.80;96.90;;;;;;5023922;28;20487;-48
2022/03/16 03:26:29;;;;;;;56.80;27.10;;;9.90;96.90;;;;;;5019830;28;20479;-50
2022/03/16 03:28:56;;;;;;;53.77;26.20;;;9.90;96.90;;;;;;5014810;28;20532;-51
2022/03/16 03:31:22;;;;;;;58.17;28.67;;;9.90;96.80;;;;;;5020407;28;20477;-48
2022/03/16 03:33:50;;;;;;;61.23;27.10;;;9.90;96.80;;;;;;5014226;28;20561;-47
2022/03/16 03:36:17;;;;;;;59.50;27.30;;;9.80;96.80;;;;;;5022352;28;21004;-47
2022/03/16 03:38:44;;;;;;;56.33;27.90;;;9.90;96.80;;;;;;5019270;28;21004;-47
2022/03/16 03:41:10;;;;;;;52.43;25.87;;;9.90;96.80;;;;;;5018290;28;20486;-48
2022/03/16 03:43:37;;;;;;;68.90;28.70;;;9.90;96.70;;;;;;5021042;28;20490;-48
2022/03/16 03:46:04;;;;;;;59.73;28.70;;;9.90;96.70;;;;;;5020523;28;20477;-48
2022/03/16 03:48:31;;;;;;;60.00;26.80;;;9.90;96.70;;;;;;5019012;28;20556;-48
2022/03/16 03:51:00;;;;;;;64.03;27.50;;;9.90;96.70;;;;;;5016669;28;20489;-49
2022/03/16 03:53:26;;;;;;;52.00;25.50;;;9.90;96.80;;;;;;5020536;28;20482;-48
2022/03/16 03:55:53;;;;;;;53.20;26.23;;;9.80;96.70;;;;;;5018860;28;20496;-48
2022/03/16 03:58:20;;;;;;;56.70;26.40;;;9.90;96.70;;;;;;5020370;28;20538;-48
2022/03/16 04:00:46;;;;;;;54.33;28.47;;;9.80;96.70;;;;;;5017813;28;20482;-48
2022/03/16 04:03:13;;;;;;;60.10;26.63;;;9.80;96.90;;;;;;5014942;28;20570;-48
2022/03/16 04:05:40;;;;;;;58.80;26.27;;;9.80;96.70;;;;;;5017209;28;20487;-48
2022/03/16 04:08:08;;;;;;;51.03;25.40;;;9.80;96.80;;;;;;5018870;28;20482;-47
2022/03/16 04:10:36;;;;;;;54.60;24.80;;;9.70;96.80;;;;;;4976692;28;20481;-48
2022/03/16 04:13:03;;;;;;;59.57;26.37;;;9.70;96.90;;;;;;5021902;28;21072;-48
2022/03/16 04:15:30;;;;;;;53.87;25.73;;;9.60;96.90;;;;;;4995276;28;20494;-48
2022/03/16 04:17:56;;;;;;;49.60;24.87;;;9.60;96.80;;;;;;5011517;28;20885;-48
2022/03/16 04:20:23;;;;;;;54.23;24.50;;;9.40;96.80;;;;;;5005882;28;20511;-47
2022/03/16 04:22:50;;;;;;;47.83;24.93;;;9.40;96.80;;;;;;4985117;28;20980;-47
2022/03/16 04:25:18;;;;;;;57.70;25.00;;;9.40;96.80;;;;;;5018211;28;20544;-48
2022/03/16 04:27:45;;;;;;;50.93;25.20;;;9.40;96.80;;;;;;5019852;28;20486;-47
2022/03/16 04:30:12;;;;;;;51.87;25.03;;;9.40;96.80;;;;;;4971189;28;20486;-48
2022/03/16 04:32:39;;;;;;;48.60;23.03;;;9.30;96.80;;;;;;5011421;28;21180;-48
2022/03/16 04:35:07;;;;;;;46.57;24.03;;;9.30;96.70;;;;;;5018456;28;20503;-48
2022/03/16 04:37:35;;;;;;;45.50;25.37;;;9.30;96.70;;;;;;5008819;28;20486;-48
2022/03/16 04:40:02;;;;;;;50.73;24.77;;;9.30;96.80;;;;;;4978772;28;20898;-48
2022/03/16 04:42:30;;;;;;;51.43;23.87;;;9.30;96.70;;;;;;5002324;28;21083;-53
2022/03/16 04:44:56;;;;;;;49.27;24.07;;;9.30;96.70;;;;;;5012681;28;21045;-47
2022/03/16 04:47:23;;;;;;;59.47;23.70;;;9.30;96.60;;;;;;5003315;28;20917;-48
2022/03/16 04:49:50;;;;;;;58.53;24.57;;;9.30;96.40;;;;;;5030221;28;20477;-48
2022/03/16 04:52:17;;;;;;;49.40;22.40;;;9.20;96.20;;;;;;5003635;28;20589;-48
2022/03/16 04:54:44;;;;;;;41.57;22.27;;;9.20;96.20;;;;;;5005353;28;20477;-48
2022/03/16 04:57:10;;;;;;;53.30;22.87;;;9.20;96.10;;;;;;5021014;28;20491;-48
2022/03/16 04:59:38;;;;;;;41.70;21.10;;;9.10;96.10;;;;;;4988967;28;20485;-48
2022/03/16 05:02:05;;;;;;;55.83;22.90;;;9.10;96.00;;;;;;4999495;28;20481;-49
2022/03/16 05:04:32;;;;;;;46.63;24.07;;;9.00;96.00;;;;;;5012691;28;21291;-48
2022/03/16 05:06:59;;;;;;;49.30;24.90;;;9.00;96.00;;;;;;5010158;28;20486;-48
2022/03/16 05:09:26;;;;;;;50.43;24.13;;;;;;;;;;5015646;28;20497;-48
2022/03/16 05:11:52;;;;;;;52.90;24.43;;;8.80;96.20;;;;;;5028667;28;20486;-48
2022/03/16 05:14:19;;;;;;;49.60;23.60;;;8.80;96.30;;;;;;5013918;28;20538;-48
2022/03/16 05:16:47;;;;;;;51.83;22.70;;;8.80;96.40;;;;;;5030723;28;20477;-48
2022/03/16 05:19:14;;;;;;;48.47;22.67;;;;;;;;;;5018333;28;20489;-48
2022/03/16 05:21:41;;;;;;;55.23;22.07;;;8.60;96.40;;;;;;5019253;28;21073;-48
2022/03/16 05:24:08;;;;;;;48.60;22.47;;;8.60;96.50;;;;;;5012386;28;20475;-48
2022/03/16 05:26:35;;;;;;;51.13;22.47;;;8.50;96.40;;;;;;5019508;28;21217;-48
2022/03/16 05:29:01;;;;;;;52.67;22.93;;;8.50;96.30;;;;;;5020296;28;20477;-47
2022/03/16 05:31:28;;;;;;;41.80;20.23;;;8.50;96.50;;;;;;5021224;28;20480;-47
2022/03/16 05:33:56;;;;;;;52.57;23.23;;;8.40;96.70;;;;;;5014750;28;20487;-48
2022/03/16 05:36:23;;;;;;;44.60;20.67;;;8.40;97.00;;;;;;5028036;28;20483;-47
2022/03/16 05:38:50;;;;;;;47.23;20.87;;;8.30;97.20;;;;;;5020655;28;20485;-47
2022/03/16 05:41:17;;;;;;;44.27;21.53;;;8.30;97.30;;;;;;5020972;28;20489;-47
2022/03/16 05:43:44;;;;;;;37.40;20.63;;;8.30;97.20;;;;;;5011858;28;20479;-47
2022/03/16 05:46:11;;;;;;;44.40;23.50;;;8.30;97.10;;;;;;5033892;28;20486;-48
2022/03/16 05:48:38;;;;;;;51.87;21.73;;;;;;;;;;5015486;28;20501;-48
2022/03/16 05:51:06;;;;;;;45.50;21.83;;;8.20;97.10;;;;;;5028346;28;20493;-48
2022/03/16 05:53:33;;;;;;;44.87;20.27;;;8.20;97.10;;;;;;5023990;28;20477;-48
2022/03/16 05:55:59;;;;;;;45.97;20.07;;;8.20;97.00;;;;;;5015107;28;20550;-48
2022/03/16 05:58:26;;;;;;;39.80;20.27;;;8.20;97.10;;;;;;5019234;28;20871;-48
2022/03/16 06:00:53;;;;;;;46.37;20.67;;;8.30;97.10;;;;;;5022012;28;20497;-48
2022/03/16 06:03:20;;;;;;;53.03;22.80;;;8.40;97.10;;;;;;5020186;28;20850;-48
2022/03/16 06:05:46;;;;;;;41.37;21.93;;;8.50;97.00;;;;;;5021838;28;20497;-47
2022/03/16 06:08:14;;;;;;;37.57;18.57;;;8.40;96.60;;;;;;5022376;28;20485;-48
2022/03/16 06:10:41;;;;;;;43.13;20.53;;;8.50;96.60;;;;;;5021185;28;20489;-48
2022/03/16 06:13:08;;;;;;;40.90;21.43;;;8.50;96.70;;;;;;5021019;28;20569;-48
2022/03/16 06:15:40;;;;;;;42.77;21.87;;;8.50;97.00;;;;;;5022080;28;20493;-49
2022/03/16 06:18:06;;;;;;;62.63;24.67;;;8.60;97.00;;;;;;4999074;28;20486;-48
2022/03/16 06:20:34;;;;;;;44.03;22.07;;;8.70;97.00;;;;;;5029596;28;20470;-48
2022/03/16 06:23:01;;;;;;;46.57;22.83;;;8.70;96.90;;;;;;5026123;28;20483;-47
2022/03/16 06:25:30;;;;;;;51.43;26.13;;;8.80;96.90;;;;;;5022834;28;20559;-47
2022/03/16 06:27:57;;;;;;;54.07;26.20;;;8.90;96.80;;;;;;5019784;28;20519;-47
2022/03/16 06:30:24;;;;;;;38.70;21.10;;;8.90;96.80;;;;;;5021363;28;20489;-47
2022/03/16 06:32:52;;;;;;;47.57;23.67;;;9.00;96.90;;;;;;5013965;28;20524;-47
2022/03/16 06:35:18;;;;;;;53.40;26.90;;;9.10;96.80;;;;;;5027051;28;20483;-47
2022/03/16 06:37:46;;;;;;;54.33;25.00;;;9.10;96.80;;;;;;5021988;28;20478;-48
2022/03/16 06:40:14;;;;;;;52.70;26.03;;;9.20;96.80;;;;;;5021647;28;20513;-47
2022/03/16 06:42:50;;;;;;;54.07;25.50;;;9.20;96.70;;;;;;5019629;28;20480;-51
2022/03/16 06:45:17;;;;;;;46.67;23.63;;;9.20;96.80;;;;;;5026719;28;21362;-48
2022/03/16 06:47:44;;;;;;;45.80;24.07;;;;;;;;;;5022119;28;20577;-48
2022/03/16 06:50:11;;;;;;;40.87;23.57;;;9.30;96.90;;;;;;5017861;28;20490;-47
2022/03/16 06:52:38;;;;;;;48.20;21.67;;;9.30;96.90;;;;;;5009248;28;20495;-48
2022/03/16 06:55:06;;;;;;;45.53;23.53;;;9.30;96.90;;;;;;5021280;28;21273;-47
2022/03/16 06:57:33;;;;;;;51.87;25.60;;;9.40;96.90;;;;;;5019374;28;20483;-50
2022/03/16 07:00:01;;;;;;;48.93;25.03;;;9.40;96.90;;;;;;5014393;28;20511;-48
2022/03/16 07:02:28;;;;;;;53.23;25.40;;;9.40;96.90;;;;;;5019935;28;20495;-47
2022/03/16 07:04:54;;;;;;;42.33;23.50;;;9.50;96.90;;;;;;5007847;28;20490;-47
2022/03/16 07:07:25;;;;;;;46.60;23.90;;;9.50;97.00;;;;;;5022792;28;21187;-47
2022/03/16 07:09:52;;;;;;;45.43;25.03;;;9.50;97.00;;;;;;5021126;28;20496;-47
2022/03/16 07:12:18;;;;;;;46.87;25.53;;;9.50;97.10;;;;;;5020277;28;20494;-47
2022/03/16 07:14:46;;;;;;;58.00;27.30;;;;;;;;;;5020459;28;20487;-48
2022/03/16 07:17:15;;;;;;;57.80;27.20;;;9.60;97.20;;;;;;5022218;28;20477;-47
2022/03/16 07:19:41;;;;;;;53.93;27.27;;;9.70;97.30;;;;;;5021012;28;20470;-48
2022/03/16 07:22:08;;;;;;;55.87;28.10;;;9.70;97.20;;;;;;5021408;28;20491;-48
2022/03/16 07:24:35;;;;;;;52.23;25.90;;;9.80;97.40;;;;;;5019864;28;20466;-48
2022/03/16 07:27:03;;;;;;;53.97;27.37;;;9.80;97.30;;;;;;5018501;28;20482;-48
2022/03/16 07:29:30;;;;;;;52.43;27.20;;;9.90;97.70;;;;;;5020319;28;20538;-48
2022/03/16 07:31:57;;;;;;;54.40;27.90;;;9.90;97.80;;;;;;5019140;28;20589;-47
2022/03/16 07:34:26;;;;;;;64.80;28.33;;;9.90;97.80;;;;;;5021178;28;20498;-48
2022/03/16 07:36:53;;;;;;;62.70;30.93;;;10.00;97.40;;;;;;5019355;28;20470;-47
2022/03/16 07:39:19;;;;;;;57.50;29.27;;;10.10;97.20;;;;;;5021844;28;20482;-48
2022/03/16 07:41:46;;;;;;;58.67;29.57;;;10.10;97.10;;;;;;5015928;28;20965;-48
2022/03/16 07:44:13;;;;;;;62.73;27.63;;;10.10;97.10;;;;;;5020271;28;20478;-48
2022/03/16 07:46:40;;;;;;;64.87;27.33;;;10.20;97.10;;;;;;5013641;28;20482;-49
2022/03/16 07:49:06;;;;;;;60.23;30.07;;;10.20;97.30;;;;;;5018569;28;20493;-47
2022/03/16 07:51:34;;;;;;;60.80;28.83;;;10.20;97.20;;;;;;5020990;28;20490;-48
2022/03/16 07:54:01;;;;;;;53.30;28.40;;;10.20;97.00;;;;;;5016838;28;20486;-47
2022/03/16 07:56:28;;;;;;;57.30;29.67;;;10.20;97.10;;;;;;5012057;28;20491;-47
2022/03/16 07:58:58;;;;;;;66.00;28.03;;;;;;;;;;5028080;28;20486;-48
2022/03/16 08:01:24;;;;;;;53.20;27.43;;;10.20;97.30;;;;;;5019931;28;20496;-48
2022/03/16 08:03:51;;;;;;;50.03;27.00;;;10.20;97.10;;;;;;5008489;28;20480;-50
2022/03/16 08:06:18;;;;;;;52.60;26.57;;;;;;;;;;5032058;28;20969;-47
2022/03/16 08:08:46;;;;;;;54.43;27.30;;;10.30;96.90;;;;;;5016523;28;20478;-49
2022/03/16 08:11:13;;;;;;;54.37;28.57;;;10.30;97.00;;;;;;5018064;28;20474;-49
2022/03/16 08:13:40;;;;;;;51.80;28.57;;;10.50;97.20;;;;;;5024062;28;20521;-49
2022/03/16 08:16:07;;;;;;;47.63;24.47;;;10.50;96.90;;;;;;5017247;28;20495;-49
2022/03/16 08:18:34;;;;;;;52.73;28.53;;;;;;;;;;5015283;28;21024;-48
2022/03/16 08:21:02;;;;;;;60.07;28.73;;;10.60;97.10;;;;;;5013886;28;20591;-47
2022/03/16 08:23:29;;;;;;;60.87;30.93;;;10.70;97.10;;;;;;4998695;28;20547;-48
2022/03/16 08:25:58;;;;;;;56.97;27.93;;;10.80;97.20;;;;;;5005544;28;20474;-49
2022/03/16 08:28:25;;;;;;;53.23;29.37;;;10.90;96.90;;;;;;5004794;28;20478;-48
2022/03/16 08:30:53;;;;;;;52.63;26.87;;;11.00;97.00;;;;;;5004176;28;20567;-51
2022/03/16 08:33:22;;;;;;;50.93;26.17;;;;;;;;;;5022811;28;20494;-48
2022/03/16 08:35:48;;;;;;;51.63;28.57;;;11.20;96.90;;;;;;5016797;28;20901;-48
2022/03/16 08:38:15;;;;;;;53.47;26.07;;;11.30;96.50;;;;;;5020883;28;20482;-48
2022/03/16 08:40:42;;;;;;;50.67;27.50;;;11.40;96.40;;;;;;5009700;28;20547;-48
2022/03/16 08:43:11;;;;;;;50.60;25.67;;;;;;;;;;5021803;28;20481;-48
2022/03/16 08:45:39;;;;;;;49.13;25.73;;;11.50;96.40;;;;;;5010507;28;21217;-49
2022/03/16 08:48:06;;;;;;;49.53;25.87;;;11.50;96.50;;;;;;5026586;28;21214;-49
2022/03/16 08:50:32;;;;;;;57.93;29.03;;;11.70;96.80;;;;;;5014252;28;20491;-49
2022/03/16 08:52:59;;;;;;;54.63;27.27;;;11.80;96.60;;;;;;5019180;28;20560;-49
2022/03/16 08:55:26;;;;;;;61.97;29.70;;;12.00;96.70;;;;;;5021936;28;21095;-48
2022/03/16 08:57:52;;;;;;;49.17;26.27;;;12.10;96.50;;;;;;5024015;28;20552;-49
2022/03/16 09:00:20;;;;;;;49.37;25.20;;;12.20;96.10;;;;;;5020697;28;20490;-49
2022/03/16 09:02:47;;;;;;;49.83;26.10;;;12.30;95.90;;;;;;5021959;28;20489;-49
2022/03/16 09:05:15;;;;;;;48.17;25.40;;;12.30;95.70;;;;;;5023773;28;20486;-45
2022/03/16 09:07:41;;;;;;;48.77;26.77;;;12.40;95.80;;;;;;5023949;28;20470;-49
2022/03/16 09:10:09;;;;;;;48.97;26.13;;;12.40;95.70;;;;;;5017104;28;21069;-49
2022/03/16 09:12:37;;;;;;;45.20;26.50;;;12.50;96.00;;;;;;5019587;28;20595;-49
2022/03/16 09:15:04;;;;;;;47.43;24.17;;;12.50;95.90;;;;;;5022419;28;20476;-48
2022/03/16 09:17:33;;;;;;;62.53;28.90;;;12.60;95.80;;;;;;5023835;28;21596;-47
2022/03/16 09:20:00;;;;;;;47.17;25.80;;;12.70;96.00;;;;;;5016440;28;20495;-47
2022/03/16 09:22:27;;;;;;;52.50;28.50;;;12.80;96.10;;;;;;5022200;28;21126;-47
2022/03/16 09:24:56;;;;;;;48.17;24.30;;;12.90;95.50;;;;;;5017176;28;20494;-47
2022/03/16 09:27:23;;;;;;;41.43;24.97;;;13.00;96.00;;;;;;5023151;28;20520;-47
2022/03/16 09:29:50;;;;;;;47.53;26.00;;;13.20;95.70;;;;;;5019777;28;20671;-47
2022/03/16 09:32:18;;;;;;;54.90;27.20;;;13.30;96.10;;;;;;5022817;28;20485;-47
2022/03/16 09:34:46;;;;;;;49.17;25.93;;;13.40;95.70;;;;;;5024543;28;20606;-47
2022/03/16 09:37:13;;;;;;;47.00;26.83;;;13.60;95.30;;;;;;5015608;28;20486;-48
2022/03/16 09:39:40;;;;;;;50.10;25.30;;;13.50;95.00;;;;;;5025211;28;20839;-48
2022/03/16 09:42:08;;;;;;;53.53;26.33;;;13.50;95.10;;;;;;5025132;28;20799;-47
2022/03/16 09:44:36;;;;;;;43.40;24.23;;;13.50;94.80;;;;;;5025833;28;21034;-47
2022/03/16 09:47:04;;;;;;;50.37;23.90;;;13.50;94.60;;;;;;5013123;28;20482;-48
2022/03/16 09:49:31;;;;;;;44.30;23.20;;;13.60;95.00;;;;;;5027007;28;20496;-48
2022/03/16 09:51:59;;;;;;;42.07;23.80;;;13.70;95.10;;;;;;5023726;28;20800;-48
2022/03/16 09:54:26;;;;;;;42.87;21.77;;;13.70;94.60;;;;;;5020119;28;21054;-48
2022/03/16 09:56:54;;;;;;;45.07;22.87;;;13.70;94.50;;;;;;5022899;28;21086;-49
2022/03/16 09:59:21;;;;;;;48.27;25.53;;;13.70;94.70;;;;;;5020619;28;20496;-48
2022/03/16 10:01:48;;;;;;;53.43;24.90;;;13.70;94.70;;;;;;5017959;28;20903;-48
2022/03/16 10:04:28;;;;;;;48.20;23.87;;;13.60;94.70;;;;;;5026019;28;20870;-48
2022/03/16 10:06:55;;;;;;;60.43;25.33;;;13.50;94.70;;;;;;5026087;28;20952;-48
2022/03/16 10:15:04;;;;;;;46.77;23.27;;;13.60;94.80;;;;;;5021372;28;20573;-48
2022/03/16 10:17:45;;;;;;;41.90;23.83;;;13.70;95.10;;;;;;5024953;28;20790;-48
2022/03/16 10:20:26;;;;;;;40.70;24.03;;;13.60;95.00;;;;;;5009213;28;20907;-48
2022/03/16 10:23:02;;;;;;;44.33;23.40;;;13.70;95.50;;;;;;5025587;28;20971;-48
2022/03/16 10:25:31;;;;;;;37.80;21.47;;;13.80;95.80;;;;;;5024047;28;20485;-48
2022/03/16 10:28:11;;;;;;;40.27;22.00;;;13.90;95.50;;;;;;5018217;28;20489;-48
2022/03/16 10:30:48;;;;;;;40.90;22.40;;;14.00;95.40;;;;;;5011552;28;21817;-48
2022/03/16 10:33:16;;;;;;;39.67;21.97;;;;;;;;;;5014978;28;21139;-48
2022/03/16 10:35:55;;;;;;;43.47;21.90;;;14.10;94.90;;;;;;5029424;28;20526;-48
2022/03/16 10:38:22;;;;;;;44.40;17.27;;;13.90;94.40;;;;;;5023370;28;20568;-48
2022/03/16 10:40:50;;;;;;;41.70;23.27;;;14.10;95.10;;;;;;5014583;28;21002;-48
2022/03/16 10:49:04;;;;;;;45.93;23.60;;;14.10;94.90;;;;;;5018210;28;20533;-48
2022/03/16 10:51:31;;;;;;;40.53;24.40;;;14.20;95.20;;;;;;5022949;28;20484;-48
2022/03/16 10:54:00;;;;;;;41.70;24.43;;;14.10;94.90;;;;;;5024982;28;20487;-48
2022/03/16 10:56:30;;;;;;;42.20;23.23;;;14.00;94.60;;;;;;5019513;28;20487;-48
2022/03/16 10:58:58;;;;;;;42.97;23.47;;;;;;;;;;5018947;28;21020;-48
2022/03/16 11:01:26;;;;;;;43.43;24.70;;;13.90;94.60;;;;;;5018507;28;21044;-48
2022/03/16 11:03:55;;;;;;;48.73;25.60;;;13.90;94.70;;;;;;5021422;28;21414;-49
2022/03/16 11:06:22;;;;;;;41.67;22.57;;;13.90;94.80;;;;;;5024631;28;20531;-48
2022/03/16 11:08:50;;;;;;;52.83;23.50;;;13.80;94.80;;;;;;5020393;28;20472;-49
2022/03/16 11:14:04;;;;;;;41.03;23.50;;;;;;;;;;5023660;28;20527;-50
2022/03/16 11:16:32;;;;;;;45.53;24.77;;;13.70;94.80;;;;;;5023141;28;20802;-48
2022/03/16 11:19:00;;;;;;;44.33;22.50;;;13.70;95.10;;;;;;5021132;28;20479;-49
2022/03/16 11:21:35;;;;;;;50.33;24.53;;;13.70;95.40;;;;;;5026410;28;20486;-49
2022/03/16 11:24:17;;;;;;;41.90;24.33;;;13.80;95.40;;;;;;5022254;28;20487;-48
2022/03/16 11:27:11;;;;;;;42.53;21.60;;;13.80;95.30;;;;;;5023291;28;21258;-48
2022/03/16 11:29:47;;;;;;;38.50;23.70;;;13.80;95.30;;;;;;5006702;28;20567;-48
2022/03/16 11:32:16;;;;;;;38.13;23.30;;;13.80;95.50;;;;;;5017294;28;20567;-48
2022/03/16 11:34:54;;;;;;;44.10;25.90;;;13.90;95.40;;;;;;5024261;28;20797;-49
2022/03/16 11:37:33;;;;;;;48.37;24.07;;;13.90;95.20;;;;;;5013839;28;20478;-47
2022/03/16 11:40:09;;;;;;;41.63;23.70;;;13.90;95.20;;;;;;5016352;28;20491;-48
2022/03/16 11:42:36;;;;;;;49.13;23.20;;;;;;;;;;5015751;28;20540;-48
2022/03/16 11:45:19;;;;;;;38.33;23.10;;;;;;;;;;5019402;28;21214;-49
2022/03/16 11:47:47;;;;;;;44.93;24.37;;;13.90;95.20;;;;;;5021916;28;21042;-48
2022/03/16 11:50:19;;;;;;;44.40;24.30;;;13.90;94.90;;;;;;5019319;28;20482;-48
2022/03/16 11:53:01;;;;;;;41.63;22.07;;;13.90;95.00;;;;;;5021058;28;20478;-48
2022/03/16 11:55:43;;;;;;;40.90;23.10;;;13.90;95.30;;;;;;5020931;28;20478;-48
2022/03/16 11:58:29;;;;;;;39.93;22.53;;;13.90;95.10;;;;;;5017598;28;21521;-48
2022/03/16 12:01:15;;;;;;;38.07;22.87;;;;;;;;;;5008117;28;21091;-49
2022/03/16 12:03:45;;;;;;;38.33;20.13;;;13.90;94.70;;;;;;5028479;28;20611;-47
2022/03/16 12:06:12;;;;;;;41.43;23.80;;;13.90;94.90;;;;;;5022419;28;20477;-48
2022/03/16 12:08:52;;;;;;;39.40;21.90;;;14.00;95.30;;;;;;5016553;28;20490;-48
2022/03/16 12:14:06;;;;;;;47.83;24.97;;;14.10;95.30;;;;;;5013735;28;20918;-49
2022/03/16 12:16:41;;;;;;;37.73;22.10;;;14.20;95.00;;;;;;5022865;28;20488;-48
2022/03/16 12:19:23;;;;;;;43.63;24.17;;;;;;;;;;5010843;28;20612;-49
2022/03/16 12:21:52;;;;;;;47.33;20.47;;;14.30;95.00;;;;;;5012266;28;21003;-48
2022/03/16 12:30:03;;;;;;;48.53;25.10;;;14.40;94.70;;;;;;5017268;28;20473;-48
2022/03/16 12:32:36;;;;;;;36.33;22.13;;;14.30;94.70;;;;;;5024705;28;20872;-49
2022/03/16 12:35:04;;;;;;;42.17;23.23;;;14.30;95.10;;;;;;5022231;28;21044;-48
2022/03/16 12:37:32;;;;;;;42.90;22.30;;;14.30;94.60;;;;;;5023122;28;20479;-48
2022/03/16 12:39:59;;;;;;;38.57;23.13;;;14.30;94.50;;;;;;5014703;28;20473;-49
2022/03/16 12:42:31;;;;;;;44.30;23.20;;;14.30;94.80;;;;;;5025399;28;20480;-47
2022/03/16 12:45:09;;;;;;;41.83;21.47;;;14.20;94.90;;;;;;5017232;28;20858;-49
2022/03/16 12:47:41;;;;;;;38.77;24.00;;;14.10;95.00;;;;;;5013701;28;20602;-49
2022/03/16 12:50:12;;;;;;;43.50;22.27;;;14.10;95.00;;;;;;5019386;28;20489;-48
2022/03/16 12:52:41;;;;;;;36.00;22.10;;;14.10;95.00;;;;;;5022362;28;20605;-48
2022/03/16 12:55:12;;;;;;;38.83;20.10;;;13.80;94.70;;;;;;5017461;28;20810;-49
2022/03/16 12:57:39;;;;;;;33.77;19.27;;;13.90;95.10;;;;;;5022075;28;20865;-48
2022/03/16 13:00:12;;;;;;;37.27;21.50;;;;;;;;;;5016262;28;20482;-49
2022/03/16 13:02:42;;;;;;;33.30;18.37;;;13.80;95.20;;;;;;5018867;28;20570;-48
2022/03/16 13:05:11;;;;;;;55.43;22.87;;;13.70;95.10;;;;;;5021906;28;20507;-48
2022/03/16 13:07:38;;;;;;;44.47;22.73;;;13.70;95.40;;;;;;5027581;28;20551;-49